Hanley, Canada
Current Conditions -  °F | °C
As of 12:00 PM on Sunday 21 Dec 2014 (Local Time) from CYXE Reporting Station
Haze Haze  
Wind Chill: 10°   Ceiling: 400
Heat Index: 21°   Visibility: 6mi
Dew Point: 21°   Wind: 10mph
Humidity: 100%   Direction: 100°E
Pressure: 29.4"   Gusts: NA
Location:  51.62°N, 106.43°W
Report Text: CYXE 211800Z 10009KT 6SM BR BKN004 M06/M06 A2940 RMK ST7 SLP986
Loading
Personal Weather Stations






























Interactive Weather Map New forecast layout! Learn more

10-Day Weather Forecast

Advertisements
Track Severe Weather on mobile